createdAt,value
2023-03-27T00:01:32.007Z,37.69
2023-03-27T00:06:37.316Z,37.22
2023-03-27T00:11:40.971Z,37.85
2023-03-27T00:16:44.631Z,38.45
2023-03-27T00:21:49.944Z,37.09
2023-03-27T00:26:55.725Z,37.56
2023-03-27T00:31:59.343Z,37.83
2023-03-27T00:37:04.662Z,38.81
2023-03-27T00:42:13.855Z,37.26
2023-03-27T00:47:19.244Z,37.86
2023-03-27T00:52:24.703Z,37.62
2023-03-27T00:57:28.402Z,38.61
2023-03-27T01:02:32.218Z,38.97
2023-03-27T01:07:40.689Z,39.29
2023-03-27T01:13:17.965Z,39.36
2023-03-27T01:18:34.107Z,39.91
2023-03-27T01:24:03.531Z,39.79
2023-03-27T01:29:15.397Z,40.25
2023-03-27T01:35:04.586Z,40.37
2023-03-27T01:40:15.660Z,39.93
2023-03-27T01:45:21.289Z,40.20
2023-03-27T01:50:30.548Z,39.41
2023-03-27T01:55:39.972Z,40.83
2023-03-27T02:00:51.460Z,40.58
2023-03-27T02:06:01.329Z,39.55
2023-03-27T02:11:07.186Z,36.84
2023-03-27T02:16:15.684Z,37.06
2023-03-27T02:21:19.451Z,38.37
2023-03-27T02:26:25.003Z,38.38
2023-03-27T02:31:44.782Z,38.87
2023-03-27T02:36:58.308Z,39.66
2023-03-27T02:42:09.952Z,39.15
2023-03-27T02:47:20.277Z,39.75
2023-03-27T02:52:29.218Z,39.54
2023-03-27T02:57:37.813Z,39.20
2023-03-27T03:02:41.999Z,38.91
2023-03-27T03:07:45.923Z,39.66
2023-03-27T03:12:51.265Z,40.26
2023-03-27T03:17:55.219Z,40.29
2023-03-27T03:22:58.938Z,40.20
2023-03-27T03:28:07.218Z,40.53
2023-03-27T03:33:10.890Z,41.11
2023-03-27T03:38:14.584Z,41.08
2023-03-27T03:43:20.018Z,40.95
2023-03-27T03:48:24.103Z,41.70
2023-03-27T03:53:27.826Z,41.73
2023-03-27T03:58:34.642Z,41.80
2023-03-27T04:03:39.147Z,41.62
2023-03-27T04:08:42.910Z,41.83
2023-03-27T04:13:48.302Z,40.99
2023-03-27T04:18:52.079Z,40.97
2023-03-27T04:23:55.875Z,41.59
2023-03-27T04:29:01.236Z,42.19
2023-03-27T04:34:04.908Z,42.62
2023-03-27T04:39:08.537Z,42.97
2023-03-27T04:44:13.890Z,43.51
2023-03-27T04:49:17.810Z,43.44
2023-03-27T04:54:21.450Z,44.26
2023-03-27T04:59:26.776Z,44.74
2023-03-27T05:04:31.362Z,44.55
2023-03-27T05:09:35.050Z,44.35
2023-03-27T05:14:40.356Z,44.81
2023-03-27T05:19:44.083Z,45.28
2023-03-27T05:24:47.779Z,46.21
2023-03-27T05:29:53.087Z,47.64
2023-03-27T05:34:56.742Z,47.02
2023-03-27T05:40:00.429Z,47.85
2023-03-27T05:45:06.395Z,48.61
2023-03-27T05:50:10.935Z,48.24
2023-03-27T05:55:15.228Z,48.23
2023-03-27T06:00:21.361Z,47.81
2023-03-27T06:05:25.750Z,47.81
2023-03-27T06:10:31.145Z,47.71
2023-03-27T06:15:39.786Z,47.89
2023-03-27T06:20:43.455Z,49.34
2023-03-27T06:25:47.097Z,50.23
2023-03-27T06:30:52.597Z,50.54
2023-03-27T06:35:56.549Z,50.68
2023-03-27T06:41:00.427Z,50.56
2023-03-27T06:46:07.451Z,52.48
2023-03-27T06:51:11.166Z,51.75
2023-03-27T06:56:14.824Z,50.74
2023-03-27T07:01:20.186Z,52.29
2023-03-27T07:06:23.833Z,51.13
2023-03-27T07:11:28.929Z,51.48
2023-03-27T07:16:35.404Z,52.26
2023-03-27T07:21:39.056Z,53.19
2023-03-27T07:26:42.688Z,53.19
2023-03-27T07:31:57.404Z,55.13
2023-03-27T07:37:02.522Z,54.94
2023-03-27T07:42:06.354Z,55.01
2023-03-27T07:47:11.646Z,55.81
2023-03-27T07:52:16.391Z,55.82
2023-03-27T07:57:20.374Z,56.15
2023-03-27T08:02:25.788Z,56.70
2023-03-27T08:07:29.439Z,57.00
2023-03-27T08:12:33.672Z,57.31
2023-03-27T08:17:39.777Z,56.80
2023-03-27T08:22:43.597Z,56.91
2023-03-27T08:27:47.247Z,57.81
2023-03-27T08:32:52.929Z,58.48
2023-03-27T08:37:56.596Z,58.52
2023-03-27T08:43:07.348Z,56.38
2023-03-27T08:48:20.425Z,57.64
2023-03-27T08:53:34.869Z,57.62
2023-03-27T08:58:38.548Z,57.92
2023-03-27T09:03:49.728Z,59.02
2023-03-27T09:09:01.553Z,59.00
2023-03-27T09:14:13.288Z,60.00
2023-03-27T09:19:26.867Z,60.56
2023-03-27T09:24:33.179Z,59.69
2023-03-27T09:29:41.731Z,59.53
2023-03-27T09:34:47.033Z,60.23
2023-03-27T09:39:53.052Z,61.19
2023-03-27T09:45:00.250Z,59.95
2023-03-27T09:50:24.571Z,61.52
2023-03-27T09:55:32.276Z,60.93
2023-03-27T10:00:36.599Z,59.60
2023-03-27T10:05:42.046Z,61.00
2023-03-27T10:10:45.756Z,60.99
2023-03-27T10:15:49.511Z,60.47
2023-03-27T10:20:56.162Z,61.58
2023-03-27T10:26:01.916Z,61.53
2023-03-27T10:31:07.848Z,62.57
2023-03-27T10:36:13.437Z,62.44
2023-03-27T10:41:28.324Z,62.73
2023-03-27T10:46:38.818Z,62.61
2023-03-27T10:51:49.827Z,62.90
2023-03-27T10:57:00.525Z,62.87
2023-03-27T11:02:13.099Z,63.07
2023-03-27T11:07:23.014Z,63.17
2023-03-27T11:12:29.614Z,62.97
2023-03-27T11:17:36.998Z,65.75
2023-03-27T11:22:43.788Z,64.88
2023-03-27T11:27:59.682Z,64.37
2023-03-27T11:33:28.425Z,64.80
2023-03-27T11:38:37.770Z,64.05
2023-03-27T11:43:41.761Z,65.12
2023-03-27T11:48:58.851Z,66.74
2023-03-27T11:54:20.980Z,64.99
2023-03-27T11:59:39.939Z,66.00
2023-03-27T12:04:51.274Z,65.74
2023-03-27T12:10:05.625Z,66.54
2023-03-27T12:15:24.923Z,66.97
2023-03-27T12:21:01.440Z,67.50
2023-03-27T12:26:47.211Z,67.51
2023-03-27T12:32:13.564Z,66.20
2023-03-27T12:37:19.879Z,66.82
2023-03-27T12:42:44.489Z,67.84
2023-03-27T12:48:07.492Z,68.33
2023-03-27T12:53:20.474Z,68.68
2023-03-27T12:58:34.922Z,68.55
2023-03-27T13:04:06.117Z,68.50
2023-03-27T13:09:36.112Z,68.62
2023-03-27T13:15:03.090Z,68.53
2023-03-27T13:20:17.043Z,69.52
2023-03-27T13:25:41.269Z,69.97
2023-03-27T13:30:50.966Z,68.47
2023-03-27T13:36:07.893Z,69.69
2023-03-27T13:41:47.800Z,70.02
2023-03-27T13:46:58.143Z,69.93
2023-03-27T13:52:45.821Z,69.88
2023-03-27T13:57:56.400Z,71.27
2023-03-27T14:03:41.783Z,71.71
2023-03-27T14:08:54.993Z,71.24
2023-03-27T14:14:23.088Z,72.60
2023-03-27T14:20:01.803Z,72.21
2023-03-27T14:25:14.679Z,70.17
2023-03-27T14:30:20.689Z,69.90
2023-03-27T14:35:28.007Z,70.93
2023-03-27T14:40:35.951Z,70.52
2023-03-27T14:45:41.683Z,70.49
2023-03-27T14:50:45.973Z,70.42
2023-03-27T14:55:51.382Z,70.43
2023-03-27T15:00:58.463Z,69.20
2023-03-27T15:06:03.855Z,69.01
2023-03-27T15:11:15.988Z,66.61
2023-03-27T15:16:23.010Z,63.66
2023-03-27T15:21:32.446Z,62.64
2023-03-27T15:26:38.258Z,61.61
2023-03-27T15:31:43.620Z,59.55
2023-03-27T15:36:53.708Z,59.59
2023-03-27T15:42:05.735Z,58.41
2023-03-27T15:47:25.054Z,55.51
2023-03-27T15:52:33.384Z,55.01
2023-03-27T15:57:38.786Z,53.82
2023-03-27T16:02:42.809Z,52.71
2023-03-27T16:07:49.068Z,51.89
2023-03-27T16:12:58.273Z,50.75
2023-03-27T16:18:05.164Z,51.42
2023-03-27T16:23:08.815Z,51.63
2023-03-27T16:28:15.440Z,50.27
2023-03-27T16:33:22.254Z,52.03
2023-03-27T16:38:26.927Z,52.23
2023-03-27T16:43:32.230Z,52.56
2023-03-27T16:48:35.856Z,53.11
2023-03-27T16:53:39.552Z,53.59
2023-03-27T16:58:44.878Z,53.12
2023-03-27T17:03:48.526Z,52.67
2023-03-27T17:08:52.225Z,52.25
2023-03-27T17:13:57.544Z,51.53
2023-03-27T17:19:01.408Z,51.52
2023-03-27T17:24:05.257Z,51.01
2023-03-27T17:29:10.548Z,51.17
2023-03-27T17:34:14.247Z,51.04
2023-03-27T17:39:18.616Z,50.46
2023-03-27T17:44:23.916Z,49.16
2023-03-27T17:49:27.604Z,48.79
2023-03-27T17:54:31.221Z,47.24
2023-03-27T17:59:36.677Z,46.65
2023-03-27T18:04:40.472Z,46.47
2023-03-27T18:09:46.692Z,47.03
2023-03-27T18:14:52.020Z,45.82
2023-03-27T18:19:55.653Z,45.51
2023-03-27T18:24:59.282Z,45.66
2023-03-27T18:30:04.741Z,46.85
2023-03-27T18:35:10.688Z,47.03
2023-03-27T18:40:14.783Z,46.38
2023-03-27T18:45:20.248Z,45.82
2023-03-27T18:50:23.886Z,43.96
2023-03-27T18:55:27.542Z,40.51
2023-03-27T19:00:32.808Z,38.81
2023-03-27T19:05:36.502Z,42.00
2023-03-27T19:10:40.496Z,40.93
2023-03-27T19:15:45.824Z,39.81
2023-03-27T19:20:49.466Z,38.72
2023-03-27T19:25:53.194Z,37.74
2023-03-27T19:31:05.581Z,39.59
2023-03-27T19:36:10.247Z,37.13
2023-03-27T19:41:13.931Z,36.88
2023-03-27T19:46:19.317Z,37.03
2023-03-27T19:51:23.105Z,35.39
2023-03-27T19:56:26.784Z,35.07
2023-03-27T20:01:32.075Z,34.87
2023-03-27T20:06:35.764Z,35.44
2023-03-27T20:11:39.407Z,32.53
2023-03-27T20:16:45.788Z,28.82
2023-03-27T20:21:49.463Z,30.94
2023-03-27T20:26:53.921Z,29.06
2023-03-27T20:31:59.367Z,28.34
2023-03-27T20:37:03.037Z,27.34
2023-03-27T20:42:06.738Z,27.38
2023-03-27T20:47:12.137Z,25.45
2023-03-27T20:52:17.374Z,26.37
2023-03-27T20:57:21.137Z,26.08
2023-03-27T21:02:26.624Z,25.44
2023-03-27T21:07:31.331Z,25.40
2023-03-27T21:12:34.981Z,26.22
2023-03-27T21:17:40.312Z,26.62
2023-03-27T21:22:44.066Z,26.74
2023-03-27T21:27:47.779Z,26.21
2023-03-27T21:32:53.119Z,27.03
2023-03-27T21:37:56.811Z,25.04
2023-03-27T21:43:00.414Z,25.11
2023-03-27T21:48:05.995Z,25.50
2023-03-27T21:53:09.821Z,25.60
2023-03-27T21:58:13.468Z,24.78
2023-03-27T22:03:19.518Z,24.51
2023-03-27T22:08:23.405Z,25.15
2023-03-27T22:13:27.228Z,24.76
2023-03-27T22:18:34.202Z,25.77
2023-03-27T22:23:37.836Z,25.80
2023-03-27T22:28:41.469Z,24.86
2023-03-27T22:33:46.853Z,24.49
2023-03-27T22:38:50.579Z,27.03
2023-03-27T22:43:54.417Z,26.31
2023-03-27T22:48:59.916Z,25.30
2023-03-27T22:54:03.669Z,25.79
2023-03-27T22:59:07.287Z,25.97
2023-03-27T23:04:12.579Z,25.04
2023-03-27T23:09:16.420Z,24.78
2023-03-27T23:14:20.175Z,26.26
2023-03-27T23:19:25.442Z,25.26
2023-03-27T23:24:29.070Z,25.76
2023-03-27T23:29:33.151Z,28.21
2023-03-27T23:34:38.425Z,27.20
2023-03-27T23:39:42.064Z,28.98
2023-03-27T23:44:45.758Z,28.16
2023-03-27T23:49:51.048Z,29.77
2023-03-27T23:54:54.710Z,30.42
2023-03-27T23:59:58.375Z,30.38
